sensor_id;sensor_type;location;lat;lon;timestamp;pressure;altitude;pressure_sealevel;temperature;humidity
71384;BME280;67558;52.166;5.004;2023-08-21T00:00:12;102399.25;;;23.03;54.38
71384;BME280;67558;52.166;5.004;2023-08-21T00:02:40;102399.44;;;23.07;54.24
71384;BME280;67558;52.166;5.004;2023-08-21T00:05:06;102388.66;;;23.02;53.97
71384;BME280;67558;52.166;5.004;2023-08-21T00:07:32;102397.06;;;23.14;53.90
71384;BME280;67558;52.166;5.004;2023-08-21T00:09:58;102396.94;;;23.19;53.67
71384;BME280;67558;52.166;5.004;2023-08-21T00:12:24;102400.31;;;23.25;53.35
71384;BME280;67558;52.166;5.004;2023-08-21T00:14:50;102397.94;;;23.23;53.55
71384;BME280;67558;52.166;5.004;2023-08-21T00:17:16;102403.13;;;22.88;54.69
71384;BME280;67558;52.166;5.004;2023-08-21T00:19:42;102403.63;;;22.68;55.10
71384;BME280;67558;52.166;5.004;2023-08-21T00:22:08;102405.78;;;22.57;55.54
71384;BME280;67558;52.166;5.004;2023-08-21T00:24:34;102408.72;;;22.61;55.89
71384;BME280;67558;52.166;5.004;2023-08-21T00:27:00;102408.41;;;22.85;54.82
71384;BME280;67558;52.166;5.004;2023-08-21T00:29:25;102415.31;;;23.05;54.21
71384;BME280;67558;52.166;5.004;2023-08-21T00:31:51;102411.53;;;23.15;54.19
71384;BME280;67558;52.166;5.004;2023-08-21T00:34:17;102412.19;;;23.20;54.01
71384;BME280;67558;52.166;5.004;2023-08-21T00:36:43;102405.63;;;23.21;54.28
71384;BME280;67558;52.166;5.004;2023-08-21T00:39:09;102404.97;;;23.24;54.12
71384;BME280;67558;52.166;5.004;2023-08-21T00:41:35;102401.25;;;23.20;54.63
71384;BME280;67558;52.166;5.004;2023-08-21T00:44:01;102392.09;;;23.16;54.79
71384;BME280;67558;52.166;5.004;2023-08-21T00:46:28;102397.19;;;23.09;54.77
71384;BME280;67558;52.166;5.004;2023-08-21T00:48:55;102390.59;;;23.10;54.57
71384;BME280;67558;52.166;5.004;2023-08-21T00:51:21;102385.78;;;23.07;54.70
71384;BME280;67558;52.166;5.004;2023-08-21T00:53:46;102381.47;;;23.06;54.88
71384;BME280;67558;52.166;5.004;2023-08-21T00:56:12;102388.81;;;23.05;54.98
71384;BME280;67558;52.166;5.004;2023-08-21T00:58:39;102389.94;;;23.04;54.89
71384;BME280;67558;52.166;5.004;2023-08-21T01:01:05;102385.78;;;23.07;55.14
71384;BME280;67558;52.166;5.004;2023-08-21T01:03:31;102385.94;;;23.02;55.17
71384;BME280;67558;52.166;5.004;2023-08-21T01:05:57;102384.28;;;23.01;54.94
71384;BME280;67558;52.166;5.004;2023-08-21T01:09:00;102390.16;;;22.94;55.56
71384;BME280;67558;52.166;5.004;2023-08-21T01:14:47;102393.84;;;22.89;55.13
71384;BME280;67558;52.166;5.004;2023-08-21T01:17:17;102382.72;;;22.86;55.61
71384;BME280;67558;52.166;5.004;2023-08-21T01:19:48;102391.09;;;22.89;55.72
71384;BME280;67558;52.166;5.004;2023-08-21T01:22:15;102398.28;;;22.85;55.98
71384;BME280;67558;52.166;5.004;2023-08-21T01:24:41;102390.59;;;22.87;55.34
71384;BME280;67558;52.166;5.004;2023-08-21T01:27:09;102399.09;;;22.86;55.54
71384;BME280;67558;52.166;5.004;2023-08-21T01:29:36;102398.28;;;22.85;55.50
71384;BME280;67558;52.166;5.004;2023-08-21T01:35:11;102393.19;;;22.93;55.16
71384;BME280;67558;52.166;5.004;2023-08-21T01:37:38;102388.97;;;22.86;55.30
71384;BME280;67558;52.166;5.004;2023-08-21T01:40:05;102403.25;;;22.83;55.23
71384;BME280;67558;52.166;5.004;2023-08-21T01:42:31;102372.06;;;22.76;55.16
71384;BME280;67558;52.166;5.004;2023-08-21T01:44:57;102386.09;;;22.83;55.30
71384;BME280;67558;52.166;5.004;2023-08-21T01:47:23;102396.06;;;22.87;55.41
71384;BME280;67558;52.166;5.004;2023-08-21T01:49:49;102402.16;;;22.84;55.54
71384;BME280;67558;52.166;5.004;2023-08-21T01:52:18;102398.09;;;22.82;55.47
71384;BME280;67558;52.166;5.004;2023-08-21T01:54:45;102399.53;;;22.79;55.52
71384;BME280;67558;52.166;5.004;2023-08-21T01:57:14;102397.75;;;22.75;55.79
71384;BME280;67558;52.166;5.004;2023-08-21T01:59:40;102400.59;;;22.69;55.74
71384;BME280;67558;52.166;5.004;2023-08-21T02:02:06;102382.03;;;22.58;55.66
71384;BME280;67558;52.166;5.004;2023-08-21T02:04:32;102393.94;;;22.62;55.88
71384;BME280;67558;52.166;5.004;2023-08-21T02:06:58;102399.69;;;22.60;56.21
71384;BME280;67558;52.166;5.004;2023-08-21T02:09:24;102405.09;;;22.52;55.94
71384;BME280;67558;52.166;5.004;2023-08-21T02:11:49;102404.50;;;22.55;56.45
71384;BME280;67558;52.166;5.004;2023-08-21T02:14:15;102403.19;;;22.52;56.11
71384;BME280;67558;52.166;5.004;2023-08-21T02:16:41;102402.84;;;22.54;56.50
71384;BME280;67558;52.166;5.004;2023-08-21T02:19:07;102402.56;;;22.55;56.43
71384;BME280;67558;52.166;5.004;2023-08-21T02:21:34;102409.94;;;22.55;56.07
71384;BME280;67558;52.166;5.004;2023-08-21T02:24:02;102413.47;;;22.55;55.99
71384;BME280;67558;52.166;5.004;2023-08-21T02:26:28;102418.22;;;22.49;56.27
71384;BME280;67558;52.166;5.004;2023-08-21T02:28:57;102410.03;;;22.49;56.27
71384;BME280;67558;52.166;5.004;2023-08-21T02:31:23;102400.84;;;22.45;56.17
71384;BME280;67558;52.166;5.004;2023-08-21T02:33:49;102403.22;;;22.38;56.19
71384;BME280;67558;52.166;5.004;2023-08-21T02:36:16;102408.59;;;22.29;56.66
71384;BME280;67558;52.166;5.004;2023-08-21T02:38:41;102404.56;;;22.27;57.10
71384;BME280;67558;52.166;5.004;2023-08-21T02:41:07;102407.34;;;22.22;56.97
71384;BME280;67558;52.166;5.004;2023-08-21T02:43:33;102403.31;;;22.19;56.83
71384;BME280;67558;52.166;5.004;2023-08-21T02:46:00;102401.50;;;22.15;56.78
71384;BME280;67558;52.166;5.004;2023-08-21T02:48:26;102414.03;;;22.16;57.24
71384;BME280;67558;52.166;5.004;2023-08-21T02:50:52;102394.88;;;22.07;57.30
71384;BME280;67558;52.166;5.004;2023-08-21T02:53:18;102409.50;;;21.97;57.66
71384;BME280;67558;52.166;5.004;2023-08-21T02:55:45;102399.53;;;21.93;57.60
71384;BME280;67558;52.166;5.004;2023-08-21T02:58:11;102406.00;;;21.97;57.92
71384;BME280;67558;52.166;5.004;2023-08-21T03:00:37;102401.34;;;21.97;57.51
71384;BME280;67558;52.166;5.004;2023-08-21T03:03:04;102394.38;;;21.91;57.46
71384;BME280;67558;52.166;5.004;2023-08-21T03:05:30;102413.03;;;21.98;57.29
71384;BME280;67558;52.166;5.004;2023-08-21T03:07:56;102416.47;;;22.03;57.05
71384;BME280;67558;52.166;5.004;2023-08-21T03:10:21;102397.09;;;21.91;57.40
71384;BME280;67558;52.166;5.004;2023-08-21T03:12:49;102399.53;;;21.93;57.62
71384;BME280;67558;52.166;5.004;2023-08-21T03:15:15;102403.34;;;21.92;57.43
71384;BME280;67558;52.166;5.004;2023-08-21T03:17:42;102397.09;;;21.91;57.74
71384;BME280;67558;52.166;5.004;2023-08-21T03:20:08;102391.56;;;21.82;57.52
71384;BME280;67558;52.166;5.004;2023-08-21T03:22:34;102406.81;;;21.83;57.96
71384;BME280;67558;52.166;5.004;2023-08-21T03:25:00;102405.19;;;21.82;57.88
71384;BME280;67558;52.166;5.004;2023-08-21T03:27:26;102402.75;;;21.81;58.20
71384;BME280;67558;52.166;5.004;2023-08-21T03:29:52;102397.91;;;21.78;58.33
71384;BME280;67558;52.166;5.004;2023-08-21T03:32:18;102397.41;;;21.76;58.14
71384;BME280;67558;52.166;5.004;2023-08-21T03:34:44;102402.75;;;21.81;58.00
71384;BME280;67558;52.166;5.004;2023-08-21T03:37:10;102396.88;;;21.87;57.71
71384;BME280;67558;52.166;5.004;2023-08-21T03:39:36;102384.91;;;21.75;58.10
71384;BME280;67558;52.166;5.004;2023-08-21T03:42:02;102387.31;;;21.76;57.64
71384;BME280;67558;52.166;5.004;2023-08-21T03:44:28;102402.56;;;21.77;57.78
71384;BME280;67558;52.166;5.004;2023-08-21T03:46:54;102403.38;;;21.78;57.69
71384;BME280;67558;52.166;5.004;2023-08-21T03:49:20;102395.31;;;21.73;57.88
71384;BME280;67558;52.166;5.004;2023-08-21T03:51:46;102396.69;;;21.70;58.19
71384;BME280;67558;52.166;5.004;2023-08-21T03:54:12;102388.63;;;21.65;57.93
71384;BME280;67558;52.166;5.004;2023-08-21T03:56:38;102405.19;;;21.68;58.32
71384;BME280;67558;52.166;5.004;2023-08-21T03:59:04;102398.41;;;21.66;58.23
71384;BME280;67558;52.166;5.004;2023-08-21T04:01:30;102403.56;;;21.67;58.22
71384;BME280;67558;52.166;5.004;2023-08-21T04:03:55;102396.19;;;21.68;57.70
71384;BME280;67558;52.166;5.004;2023-08-21T04:06:21;102400.03;;;21.67;57.81
71384;BME280;67558;52.166;5.004;2023-08-21T04:08:47;102397.31;;;21.67;58.17
71384;BME280;67558;52.166;5.004;2023-08-21T04:11:13;102394.81;;;21.71;57.47
71384;BME280;67558;52.166;5.004;2023-08-21T04:13:39;102392.84;;;21.57;57.92
71384;BME280;67558;52.166;5.004;2023-08-21T04:16:05;102403.56;;;21.54;57.89
71384;BME280;67558;52.166;5.004;2023-08-21T04:18:31;102407.59;;;21.56;57.98
71384;BME280;67558;52.166;5.004;2023-08-21T04:20:57;102414.06;;;21.60;58.17
71384;BME280;67558;52.166;5.004;2023-08-21T04:23:23;102410.72;;;21.63;57.80
71384;BME280;67558;52.166;5.004;2023-08-21T04:25:49;102415.88;;;21.65;57.93
71384;BME280;67558;52.166;5.004;2023-08-21T04:28:15;102408.31;;;21.62;58.23
71384;BME280;67558;52.166;5.004;2023-08-21T04:30:41;102402.66;;;21.58;57.92
71384;BME280;67558;52.166;5.004;2023-08-21T04:33:08;102411.22;;;21.65;58.17
71384;BME280;67558;52.166;5.004;2023-08-21T04:35:38;102413.44;;;21.63;58.20
71384;BME280;67558;52.166;5.004;2023-08-21T04:38:04;102410.63;;;21.68;57.94
71384;BME280;67558;52.166;5.004;2023-08-21T04:40:30;102413.03;;;21.70;57.73
71384;BME280;67558;52.166;5.004;2023-08-21T04:42:56;102413.66;;;21.67;57.87
71384;BME280;67558;52.166;5.004;2023-08-21T04:45:22;102405.28;;;21.63;57.89
71384;BME280;67558;52.166;5.004;2023-08-21T04:47:48;102408.41;;;21.57;58.24
71384;BME280;67558;52.166;5.004;2023-08-21T04:50:14;102411.41;;;21.55;58.43
71384;BME280;67558;52.166;5.004;2023-08-21T04:52:42;102410.94;;;21.53;58.63
71384;BME280;67558;52.166;5.004;2023-08-21T04:55:08;102424.22;;;21.55;58.33
71384;BME280;67558;52.166;5.004;2023-08-21T04:57:34;102417.97;;;21.54;58.35
71384;BME280;67558;52.166;5.004;2023-08-21T05:00:00;102416.84;;;21.55;58.67
71384;BME280;67558;52.166;5.004;2023-08-21T05:02:25;102418.59;;;21.51;58.83
71384;BME280;67558;52.166;5.004;2023-08-21T05:04:51;102422.13;;;21.52;59.13
71384;BME280;67558;52.166;5.004;2023-08-21T05:07:17;102419.97;;;21.48;59.07
71384;BME280;67558;52.166;5.004;2023-08-21T05:09:43;102428.75;;;21.59;58.68
71384;BME280;67558;52.166;5.004;2023-08-21T05:12:09;102416.25;;;21.58;58.82
71384;BME280;67558;52.166;5.004;2023-08-21T05:14:35;102431.91;;;21.66;58.73
71384;BME280;67558;52.166;5.004;2023-08-21T05:17:00;102425.25;;;21.73;59.01
71384;BME280;67558;52.166;5.004;2023-08-21T05:19:26;102425.16;;;21.64;58.93
71384;BME280;67558;52.166;5.004;2023-08-21T05:21:51;102418.19;;;21.72;58.58
71384;BME280;67558;52.166;5.004;2023-08-21T05:24:16;102425.66;;;21.80;58.73
71384;BME280;67558;52.166;5.004;2023-08-21T05:26:41;102426.75;;;21.79;58.58
71384;BME280;67558;52.166;5.004;2023-08-21T05:29:07;102425.38;;;21.81;58.88
71384;BME280;67558;52.166;5.004;2023-08-21T05:31:33;102430.09;;;21.89;58.52
71384;BME280;67558;52.166;5.004;2023-08-21T05:33:58;102423.84;;;21.89;58.44
71384;BME280;67558;52.166;5.004;2023-08-21T05:36:23;102429.28;;;21.89;58.53
71384;BME280;67558;52.166;5.004;2023-08-21T05:38:49;102437.16;;;21.91;59.12
71384;BME280;67558;52.166;5.004;2023-08-21T05:41:16;102428.38;;;21.94;59.36
71384;BME280;67558;52.166;5.004;2023-08-21T05:43:42;102431.19;;;22.02;59.00
71384;BME280;67558;52.166;5.004;2023-08-21T05:46:07;102422.22;;;22.02;59.38
71384;BME280;67558;52.166;5.004;2023-08-21T05:48:33;102434.00;;;22.11;59.42
71384;BME280;67558;52.166;5.004;2023-08-21T05:50:59;102434.53;;;22.27;59.31
71384;BME280;67558;52.166;5.004;2023-08-21T05:53:24;102429.97;;;22.36;59.20
71384;BME280;67558;52.166;5.004;2023-08-21T05:55:49;102443.88;;;22.48;58.86
71384;BME280;67558;52.166;5.004;2023-08-21T05:58:15;102430.94;;;22.54;59.25
71384;BME280;67558;52.166;5.004;2023-08-21T06:00:40;102432.00;;;22.67;58.74
71384;BME280;67558;52.166;5.004;2023-08-21T06:03:06;102429.84;;;22.78;58.41
71384;BME280;67558;52.166;5.004;2023-08-21T06:05:31;102427.50;;;22.85;58.79
71384;BME280;67558;52.166;5.004;2023-08-21T06:07:57;102425.94;;;22.93;58.89
71384;BME280;67558;52.166;5.004;2023-08-21T06:10:22;102432.63;;;23.00;58.78
71384;BME280;67558;52.166;5.004;2023-08-21T06:12:48;102436.69;;;23.12;58.29
71384;BME280;67558;52.166;5.004;2023-08-21T06:15:13;102437.06;;;23.19;58.57
71384;BME280;67558;52.166;5.004;2023-08-21T06:17:39;102436.81;;;23.29;58.47
71384;BME280;67558;52.166;5.004;2023-08-21T06:20:05;102434.00;;;23.43;58.62
71384;BME280;67558;52.166;5.004;2023-08-21T06:22:33;102431.47;;;23.55;58.33
71384;BME280;67558;52.166;5.004;2023-08-21T06:24:58;102440.06;;;23.71;58.34
71384;BME280;67558;52.166;5.004;2023-08-21T06:27:23;102427.22;;;23.71;57.65
71384;BME280;67558;52.166;5.004;2023-08-21T06:29:49;102439.19;;;23.84;58.13
71384;BME280;67558;52.166;5.004;2023-08-21T06:32:14;102425.03;;;23.82;58.14
71384;BME280;67558;52.166;5.004;2023-08-21T06:34:39;102441.28;;;23.96;57.83
71384;BME280;67558;52.166;5.004;2023-08-21T06:37:05;102448.09;;;24.07;58.10
71384;BME280;67558;52.166;5.004;2023-08-21T06:39:30;102445.03;;;24.18;57.71
71384;BME280;67558;52.166;5.004;2023-08-21T06:41:57;102431.06;;;24.19;57.68
71384;BME280;67558;52.166;5.004;2023-08-21T06:44:23;102439.28;;;24.28;57.82
71384;BME280;67558;52.166;5.004;2023-08-21T06:46:49;102439.75;;;24.30;57.84
71384;BME280;67558;52.166;5.004;2023-08-21T06:49:15;102446.53;;;24.41;57.39
71384;BME280;67558;52.166;5.004;2023-08-21T06:51:40;102444.63;;;24.42;57.39
71384;BME280;67558;52.166;5.004;2023-08-21T06:54:06;102439.69;;;24.52;56.72
71384;BME280;67558;52.166;5.004;2023-08-21T06:56:32;102449.00;;;24.51;56.99
71384;BME280;67558;52.166;5.004;2023-08-21T06:58:58;102439.19;;;24.50;56.93
71384;BME280;67558;52.166;5.004;2023-08-21T07:01:24;102448.84;;;24.57;56.57
71384;BME280;67558;52.166;5.004;2023-08-21T07:03:50;102446.75;;;24.62;56.07
71384;BME280;67558;52.166;5.004;2023-08-21T07:06:16;102438.06;;;24.60;55.84
71384;BME280;67558;52.166;5.004;2023-08-21T07:08:42;102449.00;;;24.78;55.38
71384;BME280;67558;52.166;5.004;2023-08-21T07:11:07;102409.41;;;24.66;55.12
71384;BME280;67558;52.166;5.004;2023-08-21T07:13:35;102441.44;;;24.83;55.17
71384;BME280;67558;52.166;5.004;2023-08-21T07:16:01;102416.50;;;24.67;55.02
71384;BME280;67558;52.166;5.004;2023-08-21T07:18:32;102445.94;;;24.88;54.98
71384;BME280;67558;52.166;5.004;2023-08-21T07:20:57;102445.63;;;24.89;54.76
71384;BME280;67558;52.166;5.004;2023-08-21T07:23:23;102443.69;;;24.90;54.87
71384;BME280;67558;52.166;5.004;2023-08-21T07:25:48;102444.63;;;24.94;55.07
71384;BME280;67558;52.166;5.004;2023-08-21T07:28:14;102449.31;;;25.02;55.04
71384;BME280;67558;52.166;5.004;2023-08-21T07:30:39;102456.72;;;25.10;54.69
71384;BME280;67558;52.166;5.004;2023-08-21T07:33:05;102454.44;;;25.12;54.46
71384;BME280;67558;52.166;5.004;2023-08-21T07:35:31;102451.72;;;25.21;54.02
71384;BME280;67558;52.166;5.004;2023-08-21T07:37:57;102452.69;;;25.25;53.61
71384;BME280;67558;52.166;5.004;2023-08-21T07:40:22;102453.59;;;25.29;53.16
71384;BME280;67558;52.166;5.004;2023-08-21T07:42:47;102462.66;;;25.30;52.96
71384;BME280;67558;52.166;5.004;2023-08-21T07:45:13;102465.91;;;25.23;53.11
71384;BME280;67558;52.166;5.004;2023-08-21T07:47:38;102463.28;;;25.18;53.21
71384;BME280;67558;52.166;5.004;2023-08-21T07:50:05;102464.06;;;25.19;52.98
71384;BME280;67558;52.166;5.004;2023-08-21T07:52:31;102464.06;;;25.45;52.34
71384;BME280;67558;52.166;5.004;2023-08-21T07:54:56;102468.75;;;25.27;52.80
71384;BME280;67558;52.166;5.004;2023-08-21T07:57:21;102467.66;;;25.28;52.80
71384;BME280;67558;52.166;5.004;2023-08-21T07:59:47;102458.47;;;25.32;52.85
71384;BME280;67558;52.166;5.004;2023-08-21T08:02:12;102468.06;;;25.56;52.10
71384;BME280;67558;52.166;5.004;2023-08-21T08:04:38;102454.06;;;25.40;52.63
71384;BME280;67558;52.166;5.004;2023-08-21T08:07:04;102462.94;;;25.37;52.53
71384;BME280;67558;52.166;5.004;2023-08-21T08:09:29;102467.78;;;25.79;51.03
71384;BME280;67558;52.166;5.004;2023-08-21T08:11:55;102477.38;;;26.02;50.66
71384;BME280;67558;52.166;5.004;2023-08-21T08:14:20;102487.94;;;26.21;50.21
71384;BME280;67558;52.166;5.004;2023-08-21T08:16:45;102473.03;;;26.31;49.75
71384;BME280;67558;52.166;5.004;2023-08-21T08:19:11;102477.63;;;26.39;49.58
71384;BME280;67558;52.166;5.004;2023-08-21T08:21:36;102470.50;;;26.47;49.30
71384;BME280;67558;52.166;5.004;2023-08-21T08:24:01;102460.78;;;26.49;49.16
71384;BME280;67558;52.166;5.004;2023-08-21T08:26:27;102464.28;;;26.59;48.61
71384;BME280;67558;52.166;5.004;2023-08-21T08:28:52;102458.81;;;26.59;48.69
71384;BME280;67558;52.166;5.004;2023-08-21T08:31:18;102466.84;;;26.64;48.38
71384;BME280;67558;52.166;5.004;2023-08-21T08:33:45;102463.63;;;26.62;49.08
71384;BME280;67558;52.166;5.004;2023-08-21T08:36:10;102466.44;;;26.74;48.59
71384;BME280;67558;52.166;5.004;2023-08-21T08:38:35;102468.97;;;26.79;48.42
71384;BME280;67558;52.166;5.004;2023-08-21T08:41:13;102481.03;;;26.87;48.52
71384;BME280;67558;52.166;5.004;2023-08-21T08:43:40;102472.25;;;26.93;48.08
71384;BME280;67558;52.166;5.004;2023-08-21T08:46:07;102471.22;;;26.98;48.15
71384;BME280;67558;52.166;5.004;2023-08-21T08:48:34;102470.22;;;27.03;47.71
71384;BME280;67558;52.166;5.004;2023-08-21T08:51:01;102465.41;;;27.00;48.24
71384;BME280;67558;52.166;5.004;2023-08-21T08:53:27;102462.13;;;27.06;47.56
71384;BME280;67558;52.166;5.004;2023-08-21T08:55:53;102465.09;;;27.13;47.57
71384;BME280;67558;52.166;5.004;2023-08-21T08:58:19;102456.16;;;27.16;47.67
71384;BME280;67558;52.166;5.004;2023-08-21T09:00:44;102460.34;;;27.23;46.79
71384;BME280;67558;52.166;5.004;2023-08-21T09:03:10;102455.78;;;27.27;46.96
71384;BME280;67558;52.166;5.004;2023-08-21T09:05:36;102456.25;;;27.29;46.77
71384;BME280;67558;52.166;5.004;2023-08-21T09:08:12;102448.22;;;27.24;46.94
71384;BME280;67558;52.166;5.004;2023-08-21T09:10:39;102464.84;;;27.40;46.59
71384;BME280;67558;52.166;5.004;2023-08-21T09:13:10;102463.03;;;27.44;46.79
71384;BME280;67558;52.166;5.004;2023-08-21T09:15:36;102459.56;;;27.47;46.59
71384;BME280;67558;52.166;5.004;2023-08-21T09:18:02;102466.34;;;27.37;46.24
71384;BME280;67558;52.166;5.004;2023-08-21T09:20:30;102456.00;;;27.34;46.37
71384;BME280;67558;52.166;5.004;2023-08-21T09:22:59;102457.53;;;27.44;45.71
71384;BME280;67558;52.166;5.004;2023-08-21T09:25:25;102465.09;;;27.59;45.16
71384;BME280;67558;52.166;5.004;2023-08-21T09:27:52;102466.59;;;27.69;45.09
71384;BME280;67558;52.166;5.004;2023-08-21T09:30:19;102456.41;;;27.69;44.55
71384;BME280;67558;52.166;5.004;2023-08-21T09:32:54;102451.72;;;27.70;43.87
71384;BME280;67558;52.166;5.004;2023-08-21T09:35:22;102458.91;;;27.74;44.24
71384;BME280;67558;52.166;5.004;2023-08-21T09:37:47;102451.84;;;27.73;44.43
71384;BME280;67558;52.166;5.004;2023-08-21T09:40:12;102437.84;;;27.78;43.97
71384;BME280;67558;52.166;5.004;2023-08-21T09:42:41;102451.59;;;27.78;44.15
71384;BME280;67558;52.166;5.004;2023-08-21T09:45:07;102438.75;;;27.83;43.85
71384;BME280;67558;52.166;5.004;2023-08-21T09:47:33;102435.56;;;27.81;44.22
71384;BME280;67558;52.166;5.004;2023-08-21T09:50:00;102432.09;;;27.47;44.74
71384;BME280;67558;52.166;5.004;2023-08-21T09:52:26;102445.16;;;27.37;45.78
71384;BME280;67558;52.166;5.004;2023-08-21T09:54:57;102439.19;;;27.35;45.06
71384;BME280;67558;52.166;5.004;2023-08-21T09:57:23;102443.09;;;27.34;45.68
71384;BME280;67558;52.166;5.004;2023-08-21T09:59:53;102438.25;;;27.31;45.60
71384;BME280;67558;52.166;5.004;2023-08-21T10:02:25;102436.22;;;27.28;45.40
71384;BME280;67558;52.166;5.004;2023-08-21T10:04:52;102429.00;;;27.24;45.75
71384;BME280;67558;52.166;5.004;2023-08-21T10:07:20;102435.66;;;27.35;45.52
71384;BME280;67558;52.166;5.004;2023-08-21T10:09:48;102430.16;;;27.35;45.54
71384;BME280;67558;52.166;5.004;2023-08-21T10:12:14;102429.09;;;27.27;45.36
71384;BME280;67558;52.166;5.004;2023-08-21T10:14:41;102433.78;;;27.27;45.47
71384;BME280;67558;52.166;5.004;2023-08-21T10:17:08;102432.56;;;27.36;44.95
71384;BME280;67558;52.166;5.004;2023-08-21T10:19:36;102424.78;;;27.39;44.95
71384;BME280;67558;52.166;5.004;2023-08-21T10:22:02;102432.22;;;27.38;45.24
71384;BME280;67558;52.166;5.004;2023-08-21T10:24:34;102431.19;;;27.30;45.22
71384;BME280;67558;52.166;5.004;2023-08-21T10:27:01;102436.69;;;27.43;45.50
71384;BME280;67558;52.166;5.004;2023-08-21T10:29:27;102433.69;;;27.35;45.31
71384;BME280;67558;52.166;5.004;2023-08-21T10:32:01;102434.28;;;27.41;45.58
71384;BME280;67558;52.166;5.004;2023-08-21T10:34:34;102437.13;;;27.45;45.00
71384;BME280;67558;52.166;5.004;2023-08-21T10:39:28;102433.94;;;27.43;44.37
71384;BME280;67558;52.166;5.004;2023-08-21T10:42:08;102437.06;;;27.53;43.65
71384;BME280;67558;52.166;5.004;2023-08-21T10:44:54;102435.56;;;27.56;43.96
71384;BME280;67558;52.166;5.004;2023-08-21T10:49:54;102427.53;;;27.63;44.00
71384;BME280;67558;52.166;5.004;2023-08-21T10:52:27;102420.91;;;27.64;44.00
71384;BME280;67558;52.166;5.004;2023-08-21T10:54:59;102422.50;;;27.65;44.08
71384;BME280;67558;52.166;5.004;2023-08-21T10:57:26;102416.09;;;27.61;44.01
71384;BME280;67558;52.166;5.004;2023-08-21T11:00:15;102428.00;;;27.65;44.24
71384;BME280;67558;52.166;5.004;2023-08-21T11:02:48;102423.88;;;27.71;44.06
71384;BME280;67558;52.166;5.004;2023-08-21T11:05:15;102426.75;;;27.63;44.66
71384;BME280;67558;52.166;5.004;2023-08-21T11:07:46;102415.63;;;27.71;43.97
71384;BME280;67558;52.166;5.004;2023-08-21T11:10:15;102402.81;;;27.63;43.57
71384;BME280;67558;52.166;5.004;2023-08-21T11:12:56;102418.97;;;27.65;43.44
71384;BME280;67558;52.166;5.004;2023-08-21T11:15:29;102411.28;;;27.58;43.70
71384;BME280;67558;52.166;5.004;2023-08-21T11:17:56;102424.91;;;27.67;43.77
71384;BME280;67558;52.166;5.004;2023-08-21T11:20:30;102416.22;;;27.65;42.63
71384;BME280;67558;52.166;5.004;2023-08-21T11:22:58;102421.72;;;27.65;42.73
71384;BME280;67558;52.166;5.004;2023-08-21T11:25:25;102413.56;;;27.68;43.09
71384;BME280;67558;52.166;5.004;2023-08-21T11:27:52;102415.19;;;27.69;42.96
71384;BME280;67558;52.166;5.004;2023-08-21T11:30:18;102417.13;;;27.69;43.47
71384;BME280;67558;52.166;5.004;2023-08-21T11:32:45;102419.75;;;27.65;44.05
71384;BME280;67558;52.166;5.004;2023-08-21T11:35:10;102420.44;;;27.50;43.74
71384;BME280;67558;52.166;5.004;2023-08-21T11:37:43;102421.81;;;27.68;43.39
71384;BME280;67558;52.166;5.004;2023-08-21T11:40:12;102420.88;;;27.76;43.38
71384;BME280;67558;52.166;5.004;2023-08-21T11:42:38;102413.00;;;27.87;42.95
71384;BME280;67558;52.166;5.004;2023-08-21T11:45:04;102409.13;;;27.88;42.29
71384;BME280;67558;52.166;5.004;2023-08-21T11:47:33;102411.84;;;27.76;43.11
71384;BME280;67558;52.166;5.004;2023-08-21T11:50:04;102402.56;;;27.81;43.07
71384;BME280;67558;52.166;5.004;2023-08-21T11:52:31;102402.84;;;27.88;43.02
71384;BME280;67558;52.166;5.004;2023-08-21T11:55:00;102408.53;;;27.95;43.04
71384;BME280;67558;52.166;5.004;2023-08-21T11:57:26;102417.47;;;27.92;42.71
71384;BME280;67558;52.166;5.004;2023-08-21T11:59:54;102405.34;;;27.93;43.12
71384;BME280;67558;52.166;5.004;2023-08-21T12:02:24;102412.88;;;27.96;43.14
71384;BME280;67558;52.166;5.004;2023-08-21T12:05:04;102410.13;;;27.96;43.55
71384;BME280;67558;52.166;5.004;2023-08-21T12:07:32;102409.91;;;28.01;42.89
71384;BME280;67558;52.166;5.004;2023-08-21T12:10:00;102400.50;;;28.02;42.94
71384;BME280;67558;52.166;5.004;2023-08-21T12:12:27;102393.88;;;28.03;42.29
71384;BME280;67558;52.166;5.004;2023-08-21T12:14:52;102400.72;;;28.09;42.86
71384;BME280;67558;52.166;5.004;2023-08-21T12:17:18;102399.56;;;28.10;42.58
71384;BME280;67558;52.166;5.004;2023-08-21T12:19:45;102401.53;;;28.10;42.89
71384;BME280;67558;52.166;5.004;2023-08-21T12:22:10;102394.53;;;28.12;42.14
71384;BME280;67558;52.166;5.004;2023-08-21T12:24:38;102396.56;;;28.15;41.91
71384;BME280;67558;52.166;5.004;2023-08-21T12:27:03;102395.88;;;28.18;41.86
71384;BME280;67558;52.166;5.004;2023-08-21T12:29:29;102386.69;;;28.27;41.26
71384;BME280;67558;52.166;5.004;2023-08-21T12:31:54;102385.09;;;28.26;40.83
71384;BME280;67558;52.166;5.004;2023-08-21T12:34:20;102389.34;;;28.23;41.37
71384;BME280;67558;52.166;5.004;2023-08-21T12:36:50;102378.13;;;28.16;40.99
71384;BME280;67558;52.166;5.004;2023-08-21T12:39:15;102381.88;;;28.24;41.27
71384;BME280;67558;52.166;5.004;2023-08-21T12:41:42;102381.09;;;28.23;41.29
71384;BME280;67558;52.166;5.004;2023-08-21T12:44:08;102388.09;;;28.21;41.49
71384;BME280;67558;52.166;5.004;2023-08-21T12:46:35;102399.09;;;28.21;41.85
71384;BME280;67558;52.166;5.004;2023-08-21T12:49:01;102388.19;;;28.24;41.27
71384;BME280;67558;52.166;5.004;2023-08-21T12:51:28;102396.94;;;28.14;41.74
71384;BME280;67558;52.166;5.004;2023-08-21T12:53:54;102388.56;;;28.10;41.47
71384;BME280;67558;52.166;5.004;2023-08-21T12:56:20;102386.97;;;28.09;41.17
71384;BME280;67558;52.166;5.004;2023-08-21T12:58:46;102394.31;;;28.05;41.17